createdAt,value
2019-05-09T00:01:35.352Z,96715.50
2019-05-09T00:04:05.027Z,96718.97
2019-05-09T00:06:34.363Z,96712.83
2019-05-09T00:09:05.309Z,96708.53
2019-05-09T00:11:34.840Z,96712.53
2019-05-09T00:14:04.695Z,96710.94
2019-05-09T00:16:34.126Z,96709.60
2019-05-09T00:19:03.570Z,96709.87
2019-05-09T00:21:40.202Z,96705.86
2019-05-09T00:24:09.515Z,96702.14
2019-05-09T00:26:38.776Z,96719.75
2019-05-09T00:29:14.068Z,96713.36
2019-05-09T00:32:07.812Z,96719.23
2019-05-09T00:34:49.706Z,96720.84
2019-05-09T00:37:20.652Z,96712.29
2019-05-09T00:39:49.924Z,96716.81
2019-05-09T00:42:19.186Z,96723.48
2019-05-09T00:44:50.363Z,96715.73
2019-05-09T00:47:25.837Z,96717.59
2019-05-09T00:49:55.140Z,96731.20
2019-05-09T00:52:24.529Z,96738.95
2019-05-09T00:54:56.104Z,96734.41
2019-05-09T00:57:34.392Z,96728.81
2019-05-09T01:00:09.402Z,96735.75
2019-05-09T01:02:38.684Z,96736.56
2019-05-09T01:05:08.767Z,96735.77
2019-05-09T01:07:38.044Z,96734.67
2019-05-09T01:10:07.940Z,96749.37
2019-05-09T01:12:37.218Z,96743.47
2019-05-09T01:15:07.199Z,96740.81
2019-05-09T01:17:36.455Z,96748.56
2019-05-09T01:20:06.596Z,96741.59
2019-05-09T01:22:35.860Z,96738.92
2019-05-09T01:25:05.698Z,96741.59
2019-05-09T01:27:35.012Z,96741.59
2019-05-09T01:30:04.941Z,96741.56
2019-05-09T01:33:05.836Z,96747.97
2019-05-09T01:35:35.118Z,96754.07
2019-05-09T01:38:04.517Z,96744.70
2019-05-09T01:40:33.859Z,96751.34
2019-05-09T01:43:04.467Z,96745.98
2019-05-09T01:45:34.292Z,96738.78
2019-05-09T01:48:03.763Z,96742.81
2019-05-09T01:50:34.032Z,96736.94
2019-05-09T01:53:04.110Z,96742.30
2019-05-09T01:55:51.057Z,96735.33
2019-05-09T02:16:23.836Z,96742.58
2019-05-09T02:19:04.052Z,96742.89
2019-05-09T02:21:34.534Z,96735.98
2019-05-09T02:24:04.056Z,96736.28
2019-05-09T02:26:33.577Z,96728.02
2019-05-09T02:29:03.436Z,96723.80
2019-05-09T02:31:35.457Z,96728.34
2019-05-09T02:34:04.854Z,96733.72
2019-05-09T02:36:34.642Z,96733.16
2019-05-09T02:39:09.091Z,96732.69
2019-05-09T02:41:39.009Z,96742.27
2019-05-09T02:44:09.257Z,96747.04
2019-05-09T02:46:44.536Z,96742.47
2019-05-09T02:49:13.840Z,96746.17
2019-05-09T02:51:43.097Z,96753.89
2019-05-09T02:54:12.392Z,96757.36
2019-05-09T02:56:41.671Z,96754.70
2019-05-09T02:59:18.932Z,96751.20
2019-05-09T03:01:58.600Z,96753.58
2019-05-09T03:04:28.425Z,96755.94
2019-05-09T03:06:59.681Z,96742.11
2019-05-09T03:09:29.029Z,96739.70
2019-05-09T03:11:59.258Z,96744.43
2019-05-09T03:14:29.361Z,96749.48
2019-05-09T03:16:59.062Z,96749.13
2019-05-09T03:19:29.661Z,96755.48
2019-05-09T03:22:03.344Z,96747.94
2019-05-09T03:24:32.630Z,96751.68
2019-05-09T03:27:08.506Z,96754.86
2019-05-09T03:29:44.362Z,96750.41
2019-05-09T03:32:13.884Z,96751.48
2019-05-09T03:34:43.187Z,96759.16
2019-05-09T03:37:12.466Z,96762.95
2019-05-09T03:39:41.743Z,96768.28
2019-05-09T03:42:11.028Z,96771.02
2019-05-09T03:44:40.296Z,96753.45
2019-05-09T03:47:28.501Z,96760.11
2019-05-09T03:50:11.741Z,96756.64
2019-05-09T03:52:41.023Z,96758.49
2019-05-09T03:55:12.902Z,96749.13
2019-05-09T03:57:47.660Z,96749.16
2019-05-09T04:00:18.053Z,96746.20
2019-05-09T04:02:47.598Z,96749.40
2019-05-09T04:05:18.098Z,96746.47
2019-05-09T04:07:48.510Z,96752.58
2019-05-09T04:10:18.102Z,96744.38
2019-05-09T04:12:56.302Z,96741.14
2019-05-09T04:15:21.162Z,96746.78
2019-05-09T04:17:50.422Z,96744.91
2019-05-09T04:20:20.274Z,96746.23
2019-05-09T04:22:49.568Z,96735.08
2019-05-09T04:25:23.282Z,96732.72
2019-05-09T04:27:53.239Z,96737.29
2019-05-09T04:30:22.506Z,96733.29
2019-05-09T04:32:51.759Z,96731.67
2019-05-09T04:35:21.037Z,96742.34
2019-05-09T04:37:50.296Z,96749.00
2019-05-09T04:40:19.608Z,96754.81
2019-05-09T04:42:48.876Z,96750.29
2019-05-09T04:45:28.364Z,96756.14
2019-05-09T04:47:57.854Z,96755.88
2019-05-09T04:50:27.958Z,96752.98
2019-05-09T04:52:57.991Z,96746.34
2019-05-09T04:55:29.202Z,96755.70
2019-05-09T04:58:00.260Z,96748.80
2019-05-09T05:00:48.885Z,96746.95
2019-05-09T05:03:18.395Z,96752.31
2019-05-09T05:05:48.272Z,96749.42
2019-05-09T05:08:18.208Z,96744.88
2019-05-09T05:10:47.830Z,96741.67
2019-05-09T05:13:26.320Z,96742.21
2019-05-09T05:15:48.186Z,96749.14
2019-05-09T05:18:20.305Z,96745.96
2019-05-09T05:20:48.500Z,96752.68
2019-05-09T05:23:24.228Z,96750.27
2019-05-09T05:25:53.534Z,96750.05
2019-05-09T05:28:22.798Z,96746.06
2019-05-09T05:30:52.105Z,96749.33
2019-05-09T05:33:45.755Z,96757.91
2019-05-09T05:36:15.298Z,96757.64
2019-05-09T05:38:44.577Z,96744.31
2019-05-09T05:41:13.854Z,96753.44
2019-05-09T05:43:44.726Z,96757.97
2019-05-09T05:46:51.562Z,96759.31
2019-05-09T05:49:21.172Z,96760.65
2019-05-09T05:51:50.473Z,96764.39
2019-05-09T05:54:21.341Z,96776.66
2019-05-09T05:56:51.119Z,96772.67
2019-05-09T05:59:20.597Z,96770.52
2019-05-09T06:01:50.429Z,96771.56
2019-05-09T06:04:27.641Z,96778.27
2019-05-09T06:06:58.834Z,96774.53
2019-05-09T06:09:28.234Z,96768.09
2019-05-09T06:11:57.879Z,96773.72
2019-05-09T06:14:28.592Z,96775.34
2019-05-09T06:16:59.050Z,96773.47
2019-05-09T06:19:28.757Z,96773.44
2019-05-09T06:21:58.253Z,96776.13
2019-05-09T06:24:28.399Z,96779.61
2019-05-09T06:26:58.546Z,96779.84
2019-05-09T06:29:28.873Z,96778.45
2019-05-09T06:31:58.606Z,96779.78
2019-05-09T06:34:27.929Z,96772.26
2019-05-09T06:36:58.569Z,96780.27
2019-05-09T06:39:28.585Z,96784.81
2019-05-09T06:41:57.872Z,96790.98
2019-05-09T06:44:42.902Z,96789.42
2019-05-09T06:47:19.454Z,96790.55
2019-05-09T06:49:51.960Z,96790.33
2019-05-09T06:52:21.285Z,96792.47
2019-05-09T06:54:50.544Z,96779.90
2019-05-09T06:57:19.850Z,96779.63
2019-05-09T06:59:49.128Z,96786.06
2019-05-09T07:02:38.805Z,96777.46
2019-05-09T07:05:14.235Z,96772.92
2019-05-09T07:07:48.238Z,96780.89
2019-05-09T07:10:17.859Z,96779.77
2019-05-09T07:12:48.670Z,96768.70
2019-05-09T07:15:18.635Z,96776.16
2019-05-09T07:17:48.252Z,96777.22
2019-05-09T07:20:18.253Z,96779.24
2019-05-09T07:22:50.608Z,96781.67
2019-05-09T07:25:38.414Z,96779.45
2019-05-09T07:28:07.894Z,96778.59
2019-05-09T07:30:59.056Z,96775.20
2019-05-09T07:33:35.138Z,96769.08
2019-05-09T07:36:04.708Z,96754.98
2019-05-09T07:38:34.569Z,96755.56
2019-05-09T07:41:04.133Z,96759.61
2019-05-09T07:43:33.406Z,96755.34
2019-05-09T07:46:28.600Z,96756.88
2019-05-09T07:48:59.072Z,96749.72
2019-05-09T07:51:28.353Z,96749.09
2019-05-09T07:53:58.977Z,96749.05
2019-05-09T07:56:28.645Z,96750.46
2019-05-09T07:58:58.635Z,96746.89
2019-05-09T08:01:28.322Z,96751.39
2019-05-09T08:03:58.497Z,96744.73
2019-05-09T08:06:29.710Z,96749.73
2019-05-09T08:08:59.130Z,96742.58
2019-05-09T08:11:31.805Z,96744.44
2019-05-09T08:13:59.374Z,96733.09
2019-05-09T08:16:28.632Z,96737.21
2019-05-09T08:18:58.058Z,96741.77
2019-05-09T08:21:27.856Z,96743.77
2019-05-09T08:23:57.993Z,96749.06
2019-05-09T08:26:29.678Z,96748.44
2019-05-09T08:28:58.712Z,96748.44
2019-05-09T08:31:28.317Z,96745.31
2019-05-09T08:33:59.441Z,96745.76
2019-05-09T08:36:28.687Z,96731.25
2019-05-09T08:38:58.841Z,96731.95
2019-05-09T08:41:29.172Z,96728.08
2019-05-09T08:43:58.652Z,96727.62
2019-05-09T08:46:28.759Z,96738.63
2019-05-09T08:48:58.192Z,96729.55
2019-05-09T08:51:56.085Z,96730.08
2019-05-09T08:54:39.046Z,96731.70
2019-05-09T08:57:10.546Z,96735.88
2019-05-09T08:59:39.878Z,96732.20
2019-05-09T09:02:18.542Z,96723.73
2019-05-09T09:04:40.142Z,96724.58
2019-05-09T09:07:09.852Z,96724.52
2019-05-09T09:09:39.128Z,96719.62
2019-05-09T09:12:23.065Z,96717.53
2019-05-09T09:14:39.686Z,96714.41
2019-05-09T09:17:08.954Z,96715.20
2019-05-09T09:19:38.735Z,96719.20
2019-05-09T09:22:08.794Z,96720.26
2019-05-09T09:24:38.559Z,96710.77
2019-05-09T09:27:07.937Z,96718.90
2019-05-09T09:29:37.984Z,96718.67
2019-05-09T09:32:08.425Z,96714.16
2019-05-09T09:34:38.221Z,96714.16
2019-05-09T09:37:11.226Z,96713.52
2019-05-09T09:39:44.487Z,96714.48
2019-05-09T09:42:09.470Z,96707.96
2019-05-09T09:44:39.277Z,96693.78
2019-05-09T09:47:08.950Z,96696.66
2019-05-09T09:49:38.537Z,96679.08
2019-05-09T09:52:08.749Z,96675.13
2019-05-09T09:54:38.651Z,96674.66
2019-05-09T09:57:09.755Z,96670.47
2019-05-09T09:59:49.120Z,96665.41
2019-05-09T10:02:21.017Z,96669.33
2019-05-09T10:04:50.275Z,96654.52
2019-05-09T10:07:19.557Z,96658.19
2019-05-09T10:09:48.852Z,96662.92
2019-05-09T10:12:18.329Z,96663.46
2019-05-09T10:15:00.581Z,96658.31
2019-05-09T10:17:42.924Z,96651.78
2019-05-09T10:20:21.183Z,96646.17
2019-05-09T10:22:59.818Z,96660.08
2019-05-09T10:25:21.428Z,96657.59
2019-05-09T10:27:50.514Z,96655.22
2019-05-09T10:30:24.526Z,96658.84
2019-05-09T10:32:53.754Z,96661.46
2019-05-09T10:35:24.092Z,96650.84
2019-05-09T10:37:53.340Z,96644.28
2019-05-09T10:40:23.696Z,96658.78
2019-05-09T10:43:34.043Z,96649.25
2019-05-09T10:46:19.318Z,96650.80
2019-05-09T10:48:58.441Z,96636.07
2019-05-09T10:51:26.979Z,96644.57
2019-05-09T10:53:58.537Z,96640.45
2019-05-09T10:56:28.055Z,96633.22
2019-05-09T10:58:58.459Z,96631.93
2019-05-09T11:01:29.402Z,96630.33
2019-05-09T11:03:59.351Z,96633.33
2019-05-09T11:06:29.123Z,96633.07
2019-05-09T11:08:58.816Z,96619.64
2019-05-09T11:11:28.754Z,96629.61
2019-05-09T11:13:58.901Z,96635.30
2019-05-09T11:16:41.749Z,96635.16
2019-05-09T11:18:59.329Z,96627.28
2019-05-09T11:21:28.988Z,96629.22
2019-05-09T11:23:58.753Z,96622.10
2019-05-09T11:26:28.864Z,96619.72
2019-05-09T11:28:58.950Z,96622.17
2019-05-09T11:31:29.549Z,96639.09
2019-05-09T11:33:59.194Z,96634.45
2019-05-09T11:36:28.437Z,96626.86
2019-05-09T11:39:00.654Z,96626.94
2019-05-09T11:41:29.801Z,96635.20
2019-05-09T11:44:00.129Z,96636.45
2019-05-09T11:46:29.345Z,96637.38
2019-05-09T11:48:59.066Z,96633.41
2019-05-09T11:51:29.414Z,96636.62
2019-05-09T11:53:58.777Z,96643.33
2019-05-09T11:56:28.036Z,96646.02
2019-05-09T11:58:57.918Z,96655.89
2019-05-09T12:01:29.230Z,96638.41
2019-05-09T12:03:58.400Z,96645.72
2019-05-09T12:06:29.034Z,96637.32
2019-05-09T12:08:59.021Z,96650.81
2019-05-09T12:11:28.441Z,96637.91
2019-05-09T12:13:58.336Z,96642.32
2019-05-09T12:16:28.120Z,96633.89
2019-05-09T12:18:58.350Z,96641.20
2019-05-09T12:21:28.470Z,96628.62
2019-05-09T12:23:58.506Z,96636.20
2019-05-09T12:26:29.125Z,96634.39
2019-05-09T12:28:58.751Z,96642.90
2019-05-09T12:31:29.015Z,96652.09
2019-05-09T12:33:59.419Z,96660.56
2019-05-09T12:36:30.610Z,96686.09
2019-05-09T12:38:59.912Z,96719.20
2019-05-09T12:41:31.654Z,96746.52
2019-05-09T12:44:00.323Z,96729.59
2019-05-09T12:46:29.550Z,96756.61
2019-05-09T12:48:59.455Z,96754.80
2019-05-09T12:51:28.771Z,96757.72
2019-05-09T12:53:58.217Z,96752.65
2019-05-09T12:56:28.444Z,96745.83
2019-05-09T12:58:58.175Z,96744.27
2019-05-09T13:01:27.657Z,96742.00
2019-05-09T13:03:58.341Z,96741.01
2019-05-09T13:06:29.616Z,96738.13
2019-05-09T13:08:58.924Z,96743.28
2019-05-09T13:11:28.310Z,96743.35
2019-05-09T13:13:57.603Z,96729.67
2019-05-09T13:16:47.576Z,96725.63
2019-05-09T13:19:08.099Z,96723.75
2019-05-09T13:21:38.913Z,96715.42
2019-05-09T13:24:08.747Z,96707.83
2019-05-09T13:26:38.629Z,96712.77
2019-05-09T13:29:08.447Z,96714.94
2019-05-09T13:31:39.436Z,96709.10
2019-05-09T13:34:08.935Z,96703.48
2019-05-09T13:36:38.163Z,96701.11
2019-05-09T13:39:09.869Z,96709.69
2019-05-09T13:41:39.909Z,96697.59
2019-05-09T13:44:13.672Z,96694.59
2019-05-09T13:46:40.260Z,96685.74
2019-05-09T13:49:14.780Z,96687.05
2019-05-09T13:51:49.448Z,96688.61
2019-05-09T13:54:13.611Z,96677.45
2019-05-09T13:56:42.885Z,96670.80
2019-05-09T13:59:12.307Z,96667.02
2019-05-09T14:01:41.560Z,96670.25
2019-05-09T14:04:10.845Z,96674.21
2019-05-09T14:06:40.109Z,96660.34
2019-05-09T14:09:12.916Z,96666.53
2019-05-09T14:11:42.169Z,96657.11
2019-05-09T14:14:12.230Z,96667.12
2019-05-09T14:16:41.550Z,96653.53
2019-05-09T14:19:29.178Z,96652.90
2019-05-09T14:21:41.774Z,96650.88
2019-05-09T14:24:15.383Z,96641.72
2019-05-09T14:26:42.127Z,96654.23
2019-05-09T14:29:13.279Z,96635.05
2019-05-09T14:31:42.343Z,96633.89
2019-05-09T14:34:11.612Z,96632.64
2019-05-09T14:36:45.428Z,96636.83
2019-05-09T14:39:11.907Z,96628.72
2019-05-09T14:41:41.117Z,96626.68
2019-05-09T14:44:10.395Z,96636.90
2019-05-09T14:46:39.628Z,96637.63
2019-05-09T14:49:09.037Z,96639.34
2019-05-09T14:51:39.705Z,96646.02
2019-05-09T14:54:08.971Z,96644.02
2019-05-09T14:56:42.183Z,96637.91
2019-05-09T14:59:09.991Z,96637.91
2019-05-09T15:01:43.716Z,96632.66
2019-05-09T15:04:10.612Z,96634.59
2019-05-09T15:06:39.860Z,96627.09
2019-05-09T15:09:09.496Z,96627.33
2019-05-09T15:11:39.771Z,96621.95
2019-05-09T15:14:09.335Z,96617.20
2019-05-09T15:16:39.371Z,96619.91
2019-05-09T15:19:08.903Z,96627.17
2019-05-09T15:21:38.529Z,96621.95
2019-05-09T15:24:09.244Z,96619.54
2019-05-09T15:26:38.756Z,96611.46
2019-05-09T15:29:08.387Z,96611.33
2019-05-09T15:31:39.235Z,96611.65
2019-05-09T15:34:10.380Z,96608.61
2019-05-09T15:36:39.588Z,96608.44
2019-05-09T15:39:08.909Z,96612.85
2019-05-09T15:41:38.674Z,96602.05
2019-05-09T15:44:08.584Z,96602.05
2019-05-09T15:46:51.453Z,96604.34
2019-05-09T15:49:20.744Z,96593.55
2019-05-09T15:51:50.000Z,96595.39
2019-05-09T15:54:19.229Z,96613.23
2019-05-09T15:56:48.654Z,96629.34
2019-05-09T15:59:18.558Z,96633.72
2019-05-09T16:01:49.093Z,96644.62
2019-05-09T16:04:19.748Z,96641.48
2019-05-09T16:06:50.812Z,96631.61
2019-05-09T16:09:20.046Z,96631.59
2019-05-09T16:11:49.320Z,96613.73
2019-05-09T16:14:18.732Z,96626.17
2019-05-09T16:16:48.082Z,96631.69
2019-05-09T16:19:17.314Z,96631.10
2019-05-09T16:21:47.757Z,96626.34
2019-05-09T16:24:18.885Z,96635.20
2019-05-09T16:26:48.892Z,96625.91
2019-05-09T16:29:19.422Z,96628.66
2019-05-09T16:31:48.740Z,96629.30
2019-05-09T16:34:18.094Z,96632.84
2019-05-09T16:36:48.169Z,96639.47
2019-05-09T16:39:18.035Z,96639.02
2019-05-09T16:41:48.395Z,96635.96
2019-05-09T16:44:18.676Z,96635.46
2019-05-09T16:46:48.725Z,96639.00
2019-05-09T16:49:19.847Z,96639.77
2019-05-09T16:51:49.180Z,96633.67
2019-05-09T16:54:18.435Z,96646.20
2019-05-09T16:56:47.681Z,96649.19
2019-05-09T16:59:17.905Z,96630.53
2019-05-09T17:01:50.373Z,96632.91
2019-05-09T17:04:19.315Z,96634.84
2019-05-09T17:06:49.668Z,96639.39
2019-05-09T17:09:19.214Z,96634.02
2019-05-09T17:11:48.536Z,96635.61
2019-05-09T17:14:19.300Z,96623.99
2019-05-09T17:16:52.626Z,96631.03
2019-05-09T17:19:19.749Z,96636.34
2019-05-09T17:22:01.168Z,96632.06
2019-05-09T17:24:30.440Z,96636.16
2019-05-09T17:26:59.706Z,96640.65
2019-05-09T17:29:28.911Z,96661.00
2019-05-09T17:31:58.566Z,96771.62
2019-05-09T17:34:28.694Z,96733.61
2019-05-09T17:36:58.047Z,96746.05
2019-05-09T17:39:27.866Z,96770.28
2019-05-09T17:41:58.334Z,96767.99
2019-05-09T17:44:28.212Z,96783.80
2019-05-09T17:46:58.167Z,96789.88
2019-05-09T17:49:28.147Z,96793.74
2019-05-09T17:51:58.423Z,96773.81
2019-05-09T17:54:28.711Z,96770.84
2019-05-09T17:56:58.182Z,96780.66
2019-05-09T17:59:29.229Z,96780.41
2019-05-09T18:01:58.417Z,96771.66
2019-05-09T18:04:28.759Z,96779.06
2019-05-09T18:06:58.681Z,96776.48
2019-05-09T18:09:28.692Z,96771.48
2019-05-09T18:11:58.191Z,96777.45
2019-05-09T18:14:27.765Z,96769.00
2019-05-09T18:16:58.141Z,96774.13
2019-05-09T18:19:29.319Z,96774.95
2019-05-09T18:21:58.951Z,96773.09
2019-05-09T18:24:28.810Z,96779.77
2019-05-09T18:26:58.559Z,96784.33
2019-05-09T18:29:27.859Z,96780.66
2019-05-09T18:32:22.077Z,96780.38
2019-05-09T18:34:53.290Z,96787.05
2019-05-09T18:37:22.525Z,96798.30
2019-05-09T18:39:51.857Z,96795.58
2019-05-09T18:42:21.139Z,96808.99
2019-05-09T18:44:50.537Z,96802.82
2019-05-09T18:47:19.875Z,96806.03
2019-05-09T18:49:49.103Z,96799.67
2019-05-09T18:52:18.516Z,96808.19
2019-05-09T18:54:47.769Z,96807.42
2019-05-09T18:57:17.023Z,96815.44
2019-05-09T18:59:46.266Z,96823.19
2019-05-09T19:02:15.523Z,96822.09
2019-05-09T19:04:44.765Z,96823.16
2019-05-09T19:07:22.534Z,96826.94
2019-05-09T19:09:44.962Z,96837.63
2019-05-09T19:12:14.263Z,96843.75
2019-05-09T19:14:44.611Z,96843.47
2019-05-09T19:17:38.804Z,96843.20
2019-05-09T19:20:15.818Z,96846.37
2019-05-09T19:22:45.074Z,96842.39
2019-05-09T19:25:14.706Z,96853.34
2019-05-09T19:27:43.960Z,96842.92
2019-05-09T19:30:13.219Z,96858.41
2019-05-09T19:32:42.558Z,96854.44
2019-05-09T19:35:11.883Z,96860.53
2019-05-09T19:37:41.099Z,96859.20
2019-05-09T19:40:11.357Z,96862.69
2019-05-09T19:42:40.590Z,96865.86
2019-05-09T19:45:09.942Z,96871.19
2019-05-09T19:47:39.167Z,96874.09
2019-05-09T19:50:09.444Z,96878.09
2019-05-09T19:52:38.953Z,96878.59
2019-05-09T19:55:08.456Z,96882.35
2019-05-09T19:57:37.677Z,96884.27
2019-05-09T20:00:07.242Z,96880.02
2019-05-09T20:02:36.479Z,96883.23
2019-05-09T20:05:05.858Z,96885.38
2019-05-09T20:07:35.085Z,96886.92
2019-05-09T20:10:22.803Z,96890.66
2019-05-09T20:13:26.139Z,96887.41
2019-05-09T20:15:55.362Z,96889.27
2019-05-09T20:18:24.639Z,96889.61
2019-05-09T20:20:53.912Z,96898.66
2019-05-09T20:23:23.179Z,96897.33
2019-05-09T20:25:52.410Z,96904.55
2019-05-09T20:28:21.643Z,96904.02
2019-05-09T20:30:50.898Z,96902.67
2019-05-09T20:33:20.130Z,96910.19
2019-05-09T20:35:49.500Z,96916.11
2019-05-09T20:38:18.914Z,96913.92
2019-05-09T20:40:48.337Z,96917.97
2019-05-09T20:43:17.769Z,96929.97
2019-05-09T20:45:47.243Z,96918.23
2019-05-09T20:48:16.648Z,96917.11
2019-05-09T20:50:45.926Z,96925.27
2019-05-09T20:53:15.375Z,96916.76
2019-05-09T20:55:44.830Z,96922.08
2019-05-09T20:58:14.246Z,96919.94
2019-05-09T21:00:43.682Z,96920.98
2019-05-09T21:03:13.114Z,96922.34
2019-05-09T21:05:42.547Z,96916.08
2019-05-09T21:08:11.939Z,96920.45
2019-05-09T21:10:41.440Z,96926.88
2019-05-09T21:13:10.859Z,96933.83
2019-05-09T21:15:40.333Z,96934.06
2019-05-09T21:18:10.149Z,96939.43
2019-05-09T21:20:39.710Z,96947.52
2019-05-09T21:23:22.891Z,96946.17
2019-05-09T21:25:40.454Z,96947.23
2019-05-09T21:28:09.901Z,96947.25
2019-05-09T21:30:39.370Z,96943.75
2019-05-09T21:33:08.771Z,96950.45
2019-05-09T21:35:38.023Z,96945.94
2019-05-09T21:38:08.845Z,96958.19
2019-05-09T21:40:38.093Z,96967.05
2019-05-09T21:43:07.361Z,96969.92
2019-05-09T21:45:36.601Z,96968.09
2019-05-09T21:48:05.852Z,96970.21
2019-05-09T21:50:35.201Z,96975.05
2019-05-09T21:53:04.461Z,96972.12
2019-05-09T21:55:33.717Z,96980.11
2019-05-09T21:58:02.952Z,96985.73
2019-05-09T22:00:36.778Z,96982.80
2019-05-09T22:03:06.938Z,96977.72
2019-05-09T22:05:36.293Z,96977.20
2019-05-09T22:08:05.646Z,96991.89
2019-05-09T22:10:34.960Z,96984.98
2019-05-09T22:13:04.203Z,96999.91
2019-05-09T22:15:33.573Z,97000.42
2019-05-09T22:18:02.818Z,97003.39
2019-05-09T22:20:32.027Z,97001.19
2019-05-09T22:23:01.286Z,97009.25
2019-05-09T22:25:30.521Z,97007.11
2019-05-09T22:27:59.774Z,97013.20
2019-05-09T22:30:28.993Z,97012.39
2019-05-09T22:32:58.248Z,97017.50
2019-05-09T22:35:27.468Z,97021.80
2019-05-09T22:37:56.727Z,97029.81
2019-05-09T22:40:25.947Z,97019.94
2019-05-09T22:42:55.231Z,97022.87
2019-05-09T22:45:24.454Z,97025.59
2019-05-09T22:47:53.696Z,97030.91
2019-05-09T22:50:22.917Z,97028.77
2019-05-09T22:52:52.177Z,97030.33
2019-05-09T22:55:21.399Z,97029.22
2019-05-09T22:57:50.666Z,97024.90
2019-05-09T23:00:19.889Z,97030.02
2019-05-09T23:02:49.136Z,97027.08
2019-05-09T23:05:18.646Z,97029.20
2019-05-09T23:07:47.908Z,97030.50
2019-05-09T23:10:17.127Z,97036.39
2019-05-09T23:12:46.414Z,97039.38
2019-05-09T23:15:17.416Z,97041.77
2019-05-09T23:17:46.739Z,97038.83
2019-05-09T23:20:34.010Z,97043.10
2019-05-09T23:23:23.943Z,97050.33
2019-05-09T23:25:53.179Z,97047.40
2019-05-09T23:28:22.700Z,97046.38
2019-05-09T23:30:53.625Z,97051.52
2019-05-09T23:33:24.433Z,97050.13
2019-05-09T23:35:53.658Z,97049.58
2019-05-09T23:38:22.916Z,97052.54
2019-05-09T23:40:52.131Z,97054.08
2019-05-09T23:43:21.402Z,97059.13
2019-05-09T23:45:50.642Z,97054.83
2019-05-09T23:48:19.911Z,97067.33
2019-05-09T23:50:49.163Z,97067.67
2019-05-09T23:53:31.691Z,97066.11
2019-05-09T23:56:18.468Z,97065.66
2019-05-09T23:59:05.531Z,97067.48
